Terminal Aerodrome Forecast
Issued by NWS

Home | Current Version | Previous Version | Text Only | Print | Product List | Glossary On
Versions: 1 2 3 4 5 6 7 8 9 10 11 12 13 14 15 16 17 18
000
FTUS46 KMFR 220549
TAFLMT
TAF
KLMT 220549Z 2206/2306 25020G30KT P6SM SCT025 BKN035 BKN100
     FM220900 27012G23KT P6SM BKN020=

USA.gov is the U.S. government's official web portal to all federal, state and local government web resources and services.